createdAt,value
2022-08-17T00:00:34.570Z,4.88
2022-08-17T00:03:02.904Z,5.45
2022-08-17T00:05:33.367Z,5.50
2022-08-17T00:08:00.875Z,5.40
2022-08-17T00:10:28.367Z,5.43
2022-08-17T00:13:05.649Z,5.60
2022-08-17T00:15:35.931Z,5.25
2022-08-17T00:18:03.569Z,5.45
2022-08-17T00:20:50.896Z,5.10
2022-08-17T00:23:18.532Z,5.28
2022-08-17T00:25:47.277Z,5.53
2022-08-17T00:28:16.391Z,5.30
2022-08-17T00:30:52.922Z,5.03
2022-08-17T00:33:29.441Z,5.10
2022-08-17T00:35:59.760Z,5.22
2022-08-17T00:38:29.122Z,5.28
2022-08-17T00:41:00.169Z,5.47
2022-08-17T00:43:44.512Z,5.15
2022-08-17T00:46:21.319Z,5.45
2022-08-17T00:48:49.796Z,5.78
2022-08-17T00:51:39.040Z,6.18
2022-08-17T00:54:14.626Z,6.03
2022-08-17T00:57:10.739Z,6.28
2022-08-17T00:59:41.877Z,5.90
2022-08-17T01:02:13.044Z,5.82
2022-08-17T01:04:40.634Z,6.22
2022-08-17T01:07:08.591Z,5.93
2022-08-17T01:09:36.056Z,6.13
2022-08-17T01:12:03.617Z,5.63
2022-08-17T01:14:31.118Z,5.93
2022-08-17T01:16:58.581Z,6.18
2022-08-17T01:19:29.913Z,5.82
2022-08-17T01:22:08.334Z,5.85
2022-08-17T01:24:41.572Z,5.57
2022-08-17T01:27:10.788Z,4.95
2022-08-17T01:29:41.698Z,5.07
2022-08-17T01:32:10.027Z,5.53
2022-08-17T01:34:43.691Z,5.45
2022-08-17T01:37:18.998Z,4.97
2022-08-17T01:39:53.119Z,5.55
2022-08-17T01:42:42.399Z,5.40
2022-08-17T01:45:16.834Z,5.28
2022-08-17T01:47:44.665Z,5.10
2022-08-17T01:50:16.174Z,5.63
2022-08-17T01:52:45.850Z,5.63
2022-08-17T01:55:16.349Z,5.40
2022-08-17T01:57:45.641Z,5.20
2022-08-17T02:00:14.586Z,5.13
2022-08-17T02:02:42.849Z,5.60
2022-08-17T02:05:10.453Z,5.72
2022-08-17T02:07:59.424Z,5.47
2022-08-17T02:10:25.345Z,6.00
2022-08-17T02:13:02.864Z,5.45
2022-08-17T02:15:30.521Z,5.85
2022-08-17T02:17:57.977Z,5.53
2022-08-17T02:20:41.620Z,6.07
2022-08-17T02:23:13.338Z,5.40
2022-08-17T02:25:43.566Z,4.88
2022-08-17T02:28:12.463Z,5.32
2022-08-17T02:30:59.932Z,5.10
2022-08-17T02:33:41.497Z,5.28
2022-08-17T02:36:13.491Z,5.22
2022-08-17T02:38:41.701Z,5.53
2022-08-17T02:41:09.669Z,5.20
2022-08-17T02:43:37.244Z,5.13
2022-08-17T02:46:04.643Z,5.20
2022-08-17T02:48:32.147Z,4.97
2022-08-17T02:51:01.217Z,5.50
2022-08-17T02:53:31.812Z,5.53
2022-08-17T02:56:04.153Z,5.53
2022-08-17T02:58:35.283Z,5.28
2022-08-17T03:01:06.550Z,5.57
2022-08-17T03:03:35.214Z,5.50
2022-08-17T03:06:03.567Z,5.13
2022-08-17T03:08:31.304Z,5.55
2022-08-17T03:10:58.755Z,5.55
2022-08-17T03:13:27.609Z,5.25
2022-08-17T03:15:55.371Z,5.55
2022-08-17T03:18:25.314Z,5.45
2022-08-17T03:20:59.306Z,5.15
2022-08-17T03:23:29.739Z,5.28
2022-08-17T03:25:59.533Z,5.50
2022-08-17T03:28:28.326Z,5.45
2022-08-17T03:30:55.909Z,5.75
2022-08-17T03:33:23.518Z,5.88
2022-08-17T03:35:51.308Z,5.55
2022-08-17T03:38:19.218Z,5.40
2022-08-17T03:40:57.603Z,5.80
2022-08-17T03:43:29.550Z,5.95
2022-08-17T03:46:34.372Z,6.05
2022-08-17T03:49:24.922Z,6.43
2022-08-17T03:52:13.106Z,5.88
2022-08-17T03:55:00.845Z,5.90
2022-08-17T03:57:29.235Z,5.32
2022-08-17T03:59:58.030Z,5.67
2022-08-17T04:02:30.107Z,5.65
2022-08-17T04:04:58.607Z,5.07
2022-08-17T04:07:29.698Z,5.50
2022-08-17T04:09:58.219Z,5.87
2022-08-17T04:12:26.708Z,5.67
2022-08-17T04:14:57.295Z,5.50
2022-08-17T04:17:27.917Z,5.97
2022-08-17T04:19:56.356Z,5.57
2022-08-17T04:22:30.009Z,5.27
2022-08-17T04:25:16.767Z,5.10
2022-08-17T04:27:44.509Z,5.50
2022-08-17T04:30:12.685Z,6.07
2022-08-17T04:33:06.185Z,7.80
2022-08-17T04:35:38.137Z,5.53
2022-08-17T04:38:06.896Z,6.65
2022-08-17T04:40:53.034Z,5.20
2022-08-17T04:43:22.493Z,5.40
2022-08-17T04:45:56.654Z,5.28
2022-08-17T04:48:29.809Z,5.50
2022-08-17T04:51:11.390Z,5.82
2022-08-17T04:53:41.243Z,6.47
2022-08-17T04:56:11.648Z,5.22
2022-08-17T04:58:39.484Z,5.45
2022-08-17T05:01:07.553Z,5.78
2022-08-17T05:03:35.195Z,5.20
2022-08-17T05:06:02.453Z,4.82
2022-08-17T05:08:29.855Z,5.30
2022-08-17T05:10:57.195Z,5.22
2022-08-17T05:13:26.663Z,5.25
2022-08-17T05:15:57.288Z,4.93
2022-08-17T05:18:25.595Z,5.38
2022-08-17T05:20:53.378Z,5.45
2022-08-17T05:23:23.131Z,4.90
2022-08-17T05:25:54.715Z,4.75
2022-08-17T05:28:26.572Z,4.63
2022-08-17T05:30:57.646Z,5.10
2022-08-17T05:33:28.282Z,4.63
2022-08-17T05:35:57.707Z,4.85
2022-08-17T05:38:26.801Z,4.90
2022-08-17T05:40:55.167Z,4.60
2022-08-17T05:43:31.729Z,4.75
2022-08-17T05:46:02.031Z,4.85
2022-08-17T05:48:35.554Z,4.57
2022-08-17T05:51:32.641Z,4.43
2022-08-17T05:54:18.329Z,5.15
2022-08-17T05:56:51.116Z,4.43
2022-08-17T05:59:29.428Z,4.63
2022-08-17T06:02:09.553Z,4.45
2022-08-17T06:04:55.016Z,4.65
2022-08-17T06:07:26.998Z,5.28
2022-08-17T06:10:20.868Z,5.00
2022-08-17T06:13:09.237Z,5.15
2022-08-17T06:16:33.521Z,5.18
2022-08-17T06:19:01.500Z,4.50
2022-08-17T06:21:34.677Z,4.00
2022-08-17T06:24:08.702Z,4.18
2022-08-17T06:26:43.208Z,3.90
2022-08-17T06:29:37.327Z,4.32
2022-08-17T06:32:12.111Z,4.40
2022-08-17T06:34:42.129Z,4.28
2022-08-17T06:37:31.249Z,4.40
2022-08-17T06:40:40.042Z,4.25
2022-08-17T06:43:40.291Z,4.28
2022-08-17T06:46:22.853Z,3.63
2022-08-17T06:49:08.560Z,4.40
2022-08-17T06:51:43.372Z,4.15
2022-08-17T06:54:24.623Z,4.53
2022-08-17T06:57:05.744Z,4.00
2022-08-17T06:59:53.256Z,4.90
2022-08-17T07:02:56.470Z,4.45
2022-08-17T07:05:28.849Z,4.13
2022-08-17T07:08:18.679Z,4.03
2022-08-17T07:10:57.400Z,3.47
2022-08-17T07:13:41.646Z,3.70
2022-08-17T07:16:27.519Z,4.07
2022-08-17T07:18:57.654Z,4.20
2022-08-17T07:21:40.980Z,3.90
2022-08-17T07:24:29.632Z,3.97
2022-08-17T07:27:38.240Z,3.72
2022-08-17T07:30:11.269Z,3.35
2022-08-17T07:32:59.935Z,3.72
2022-08-17T07:35:31.310Z,3.45
2022-08-17T07:38:26.902Z,3.85
2022-08-17T07:41:04.996Z,4.03
2022-08-17T07:43:41.703Z,3.42
2022-08-17T09:00:49.323Z,3.53
2022-08-17T09:03:28.084Z,3.08
2022-08-17T09:06:33.237Z,3.33
2022-08-17T09:09:09.790Z,3.33
2022-08-17T09:12:08.706Z,3.60
2022-08-17T09:14:45.341Z,3.38
2022-08-17T09:17:19.497Z,3.45
2022-08-17T09:19:50.194Z,3.78
2022-08-17T09:22:31.610Z,3.53
2022-08-17T09:25:08.198Z,3.20
2022-08-17T09:27:54.200Z,3.15
2022-08-17T09:30:23.834Z,2.83
2022-08-17T09:32:57.423Z,3.40
2022-08-17T09:35:37.534Z,3.30
2022-08-17T09:38:23.240Z,2.90
2022-08-17T09:41:09.569Z,2.75
2022-08-17T09:44:09.535Z,2.80
2022-08-17T09:47:06.867Z,2.50
2022-08-17T09:49:47.595Z,2.65
2022-08-17T09:52:27.623Z,3.35
2022-08-17T09:54:56.895Z,3.45
2022-08-17T09:57:32.326Z,2.50
2022-08-17T10:00:11.949Z,2.83
2022-08-17T10:03:09.921Z,2.72
2022-08-17T10:05:47.191Z,2.53
2022-08-17T10:08:42.821Z,2.65
2022-08-17T10:11:50.254Z,2.42
2022-08-17T10:14:36.237Z,2.60
2022-08-17T10:17:24.614Z,2.55
2022-08-17T10:20:13.006Z,2.55
2022-08-17T10:23:04.925Z,2.58
2022-08-17T10:25:55.890Z,2.63
2022-08-17T10:28:31.062Z,2.92
2022-08-17T10:31:34.361Z,2.35
2022-08-17T10:34:11.443Z,2.55
2022-08-17T10:37:11.296Z,2.55
2022-08-17T10:40:15.508Z,3.40
2022-08-17T10:43:03.410Z,2.67
2022-08-17T10:45:48.519Z,2.53
2022-08-17T10:48:39.993Z,2.70
2022-08-17T10:51:12.678Z,3.30
2022-08-17T10:53:43.462Z,2.53
2022-08-17T10:56:13.675Z,2.80
2022-08-17T10:58:55.654Z,7.70
2022-08-17T11:01:29.652Z,2.63
2022-08-17T11:03:59.148Z,2.20
2022-08-17T11:06:36.504Z,2.45
2022-08-17T11:09:19.986Z,2.58
2022-08-17T11:11:56.093Z,2.50
2022-08-17T11:14:41.301Z,2.45
2022-08-17T11:17:22.651Z,2.42
2022-08-17T11:20:09.625Z,2.42
2022-08-17T11:23:12.939Z,2.42
2022-08-17T11:25:47.139Z,2.60
2022-08-17T11:28:19.279Z,2.10
2022-08-17T11:30:54.101Z,2.30
2022-08-17T11:33:30.535Z,2.20
2022-08-17T11:36:26.377Z,2.80
2022-08-17T11:39:16.530Z,2.38
2022-08-17T11:42:18.052Z,2.63
2022-08-17T11:44:56.961Z,2.35
2022-08-17T11:47:49.523Z,2.60
2022-08-17T11:51:07.290Z,2.58
2022-08-17T11:53:37.673Z,2.63
2022-08-17T11:56:31.763Z,2.50
2022-08-17T11:59:00.857Z,2.78
2022-08-17T12:01:46.396Z,2.35
2022-08-17T12:04:23.094Z,2.50
2022-08-17T12:07:01.824Z,2.40
2022-08-17T12:09:34.635Z,2.10
2022-08-17T12:12:15.007Z,2.13
2022-08-17T12:17:40.615Z,2.20
2022-08-17T12:20:34.967Z,2.40
2022-08-17T12:23:26.266Z,2.28
2022-08-17T12:26:24.959Z,2.45
2022-08-17T12:28:59.709Z,2.47
2022-08-17T12:31:34.687Z,2.50
2022-08-17T12:34:04.273Z,2.30
2022-08-17T12:36:33.615Z,2.40
2022-08-17T12:39:14.139Z,2.00
2022-08-17T12:42:01.934Z,2.40
2022-08-17T12:44:36.091Z,2.05
2022-08-17T12:47:21.951Z,2.13
2022-08-17T12:49:53.063Z,2.10
2022-08-17T12:52:20.362Z,2.20
2022-08-17T12:55:01.148Z,2.60
2022-08-17T12:57:42.733Z,2.30
2022-08-17T13:00:47.483Z,2.55
2022-08-17T13:03:22.175Z,3.10
2022-08-17T13:06:01.204Z,2.80
2022-08-17T13:08:35.618Z,2.65
2022-08-17T13:11:28.959Z,3.00
2022-08-17T13:14:08.589Z,4.03
2022-08-17T13:16:36.398Z,3.83
2022-08-17T13:19:15.258Z,3.63
2022-08-17T13:21:50.701Z,4.95
2022-08-17T13:24:21.713Z,3.30
2022-08-17T13:27:07.902Z,2.55
2022-08-17T13:29:39.721Z,2.97
2022-08-17T13:32:11.560Z,5.13
2022-08-17T13:35:12.198Z,4.45
2022-08-17T13:37:35.667Z,2.80
2022-08-17T13:40:08.866Z,2.65
2022-08-17T13:42:56.671Z,2.70
2022-08-17T13:45:39.518Z,2.95
2022-08-17T13:48:13.794Z,2.50
2022-08-17T13:50:56.716Z,2.15
2022-08-17T13:53:34.417Z,3.13
2022-08-17T13:56:07.444Z,2.25
2022-08-17T13:59:00.388Z,2.75
2022-08-17T14:01:34.388Z,2.42
2022-08-17T14:04:07.075Z,2.05
2022-08-17T14:06:52.095Z,2.30
2022-08-17T14:09:23.275Z,2.58
2022-08-17T14:11:54.023Z,4.32
2022-08-17T14:14:23.373Z,2.35
2022-08-17T14:16:52.077Z,3.80
2022-08-17T14:19:21.979Z,2.63
2022-08-17T14:21:50.249Z,2.22
2022-08-17T14:24:44.477Z,2.42
2022-08-17T14:27:17.730Z,10.70
2022-08-17T14:29:45.445Z,3.90
2022-08-17T14:32:23.093Z,2.30
2022-08-17T14:34:51.083Z,2.22
2022-08-17T14:37:22.083Z,2.30
2022-08-17T14:39:49.606Z,2.65
2022-08-17T14:42:17.679Z,2.13
2022-08-17T14:44:45.099Z,2.05
2022-08-17T14:47:15.079Z,2.30
2022-08-17T14:49:42.421Z,2.00
2022-08-17T14:52:13.662Z,2.10
2022-08-17T14:54:45.554Z,2.28
2022-08-17T14:57:23.804Z,1.90
2022-08-17T15:00:01.464Z,2.30
2022-08-17T15:02:30.933Z,2.22
2022-08-17T15:05:04.695Z,2.33
2022-08-17T15:07:32.759Z,2.13
2022-08-17T15:10:02.077Z,2.28
2022-08-17T15:12:34.056Z,2.30
2022-08-17T15:15:05.511Z,2.20
2022-08-17T15:17:45.063Z,2.25
2022-08-17T15:20:21.656Z,2.22
2022-08-17T15:23:00.166Z,2.53
2022-08-17T15:25:30.406Z,3.28
2022-08-17T15:27:58.600Z,47.58
2022-08-17T15:30:27.290Z,8.70
2022-08-17T15:32:56.885Z,7.63
2022-08-17T15:35:30.691Z,3.05
2022-08-17T15:38:09.849Z,2.80
2022-08-17T15:40:44.942Z,2.95
2022-08-17T15:43:16.169Z,2.75
2022-08-17T15:45:44.458Z,2.40
2022-08-17T15:48:24.118Z,2.60
2022-08-17T15:50:51.598Z,2.45
2022-08-17T15:53:18.830Z,2.63
2022-08-17T15:55:46.213Z,2.20
2022-08-17T15:58:13.457Z,2.03
2022-08-17T16:00:49.441Z,2.30
2022-08-17T16:03:59.314Z,2.10
2022-08-17T16:06:08.949Z,2.40
2022-08-17T16:08:39.371Z,2.20
2022-08-17T16:11:08.131Z,2.70
2022-08-17T16:13:35.567Z,2.33
2022-08-17T16:16:03.082Z,2.38
2022-08-17T16:18:31.781Z,2.33
2022-08-17T16:21:21.837Z,2.33
2022-08-17T16:23:51.558Z,2.65
2022-08-17T16:26:19.598Z,2.45
2022-08-17T16:28:47.527Z,2.67
2022-08-17T16:31:14.996Z,2.60
2022-08-17T16:33:43.975Z,2.50
2022-08-17T16:36:31.346Z,2.78
2022-08-17T16:38:59.355Z,3.10
2022-08-17T16:41:44.406Z,2.50
2022-08-17T16:44:18.263Z,2.85
2022-08-17T16:46:47.442Z,4.10
2022-08-17T16:49:35.195Z,3.78
2022-08-17T16:52:04.564Z,4.10
2022-08-17T16:54:32.059Z,3.65
2022-08-17T16:56:59.361Z,2.90
2022-08-17T16:59:31.362Z,3.70
2022-08-17T17:02:11.274Z,5.10
2022-08-17T17:04:52.493Z,3.70
2022-08-17T17:07:49.748Z,3.70
2022-08-17T17:10:39.266Z,18.48
2022-08-17T17:13:13.533Z,13.95
2022-08-17T17:16:01.362Z,9.57
2022-08-17T17:18:58.196Z,4.97
2022-08-17T17:21:36.093Z,4.57
2022-08-17T17:24:14.596Z,3.72
2022-08-17T17:27:11.225Z,4.30
2022-08-17T17:30:00.876Z,3.58
2022-08-17T17:32:49.767Z,4.68
2022-08-17T17:35:33.231Z,17.10
2022-08-17T17:38:08.239Z,39.83
2022-08-17T17:41:04.576Z,34.75
2022-08-17T17:43:39.731Z,32.45
2022-08-17T17:46:43.119Z,9.75
2022-08-17T17:49:11.385Z,7.35
2022-08-17T17:52:09.263Z,6.72
2022-08-17T17:54:38.226Z,7.40
2022-08-17T17:57:26.646Z,6.15
2022-08-17T18:00:16.270Z,6.20
2022-08-17T18:03:01.648Z,5.88
2022-08-17T18:05:38.796Z,6.25
2022-08-17T18:08:21.670Z,5.57
2022-08-17T18:11:24.623Z,4.95
2022-08-17T18:13:58.712Z,4.80
2022-08-17T18:16:29.783Z,4.65
2022-08-17T18:19:00.535Z,4.70
2022-08-17T18:21:40.072Z,4.32
2022-08-17T18:24:10.667Z,4.32
2022-08-17T18:26:44.646Z,4.43
2022-08-17T18:29:36.580Z,4.10
2022-08-17T18:32:07.543Z,4.38
2022-08-17T18:34:47.028Z,4.13
2022-08-17T18:37:31.661Z,4.00
2022-08-17T18:39:59.214Z,3.75
2022-08-17T18:42:32.259Z,3.85
2022-08-17T18:45:01.077Z,3.50
2022-08-17T18:47:29.767Z,3.75
2022-08-17T18:50:18.753Z,3.60
2022-08-17T18:52:48.742Z,4.38
2022-08-17T18:55:22.594Z,18.35
2022-08-17T18:57:56.061Z,12.25
2022-08-17T19:00:47.482Z,23.48
2022-08-17T19:03:26.899Z,30.00
2022-08-17T19:06:17.268Z,14.15
2022-08-17T19:08:44.768Z,7.00
2022-08-17T19:11:32.895Z,5.38
2022-08-17T19:14:06.245Z,4.65
2022-08-17T19:17:14.909Z,5.10
2022-08-17T19:19:57.790Z,4.10
2022-08-17T19:22:36.717Z,3.85
2022-08-17T19:25:16.913Z,5.65
2022-08-17T19:28:23.093Z,5.75
2022-08-17T19:30:57.432Z,7.03
2022-08-17T19:33:25.456Z,11.90
2022-08-17T19:36:06.542Z,6.10
2022-08-17T19:38:39.786Z,4.90
2022-08-17T19:41:31.654Z,4.88
2022-08-17T19:44:40.428Z,5.68
2022-08-17T19:47:36.291Z,5.30
2022-08-17T19:50:18.964Z,6.88
2022-08-17T19:53:05.936Z,7.50
2022-08-17T19:55:43.744Z,7.40
2022-08-17T19:58:26.672Z,7.80
2022-08-17T20:00:55.403Z,8.60
2022-08-17T20:03:52.187Z,7.13
2022-08-17T20:06:22.309Z,7.95
2022-08-17T20:09:15.197Z,11.10
2022-08-17T20:11:49.337Z,9.73
2022-08-17T20:14:31.709Z,8.20
2022-08-17T20:17:02.948Z,8.95
2022-08-17T20:20:08.451Z,6.20
2022-08-17T20:22:59.684Z,7.50
2022-08-17T20:26:05.100Z,6.72
2022-08-17T20:28:39.235Z,9.88
2022-08-17T20:31:46.923Z,6.43
2022-08-17T20:34:36.771Z,5.60
2022-08-17T20:37:28.366Z,5.20
2022-08-17T20:39:55.934Z,5.05
2022-08-17T20:42:23.490Z,5.63
2022-08-17T20:44:58.287Z,4.78
2022-08-17T20:47:50.459Z,8.13
2022-08-17T20:50:43.744Z,5.55
2022-08-17T20:53:33.074Z,4.38
2022-08-17T20:56:00.447Z,4.88
2022-08-17T20:58:31.409Z,4.78
2022-08-17T21:00:59.077Z,4.35
2022-08-17T21:03:49.175Z,4.60
2022-08-17T21:06:21.762Z,4.57
2022-08-17T21:08:55.148Z,5.40
2022-08-17T21:12:02.867Z,6.45
2022-08-17T21:14:36.739Z,6.07
2022-08-17T21:17:39.738Z,5.32
2022-08-17T21:20:14.885Z,4.38
2022-08-17T21:23:13.152Z,4.55
2022-08-17T21:25:48.299Z,4.28
2022-08-17T21:29:00.505Z,4.68
2022-08-17T21:31:38.967Z,6.88
2022-08-17T21:34:15.448Z,7.13
2022-08-17T21:36:45.500Z,9.55
2022-08-17T21:39:17.177Z,8.52
2022-08-17T21:41:57.431Z,7.43
2022-08-17T21:44:38.284Z,6.78
2022-08-17T21:47:27.184Z,6.95
2022-08-17T21:49:56.007Z,5.47
2022-08-17T21:52:27.459Z,5.45
2022-08-17T21:55:02.511Z,5.70
2022-08-17T21:57:32.750Z,5.20
2022-08-17T22:00:16.478Z,5.15
2022-08-17T22:02:44.004Z,5.28
2022-08-17T22:05:14.160Z,4.65
2022-08-17T22:07:50.936Z,4.72
2022-08-17T22:10:40.317Z,4.50
2022-08-17T22:13:18.588Z,4.60
2022-08-17T22:16:15.390Z,4.10
2022-08-17T22:18:58.319Z,4.45
2022-08-17T22:21:26.281Z,4.25
2022-08-17T22:24:06.459Z,4.95
2022-08-17T22:27:01.664Z,4.53
2022-08-17T22:29:47.800Z,4.28
2022-08-17T22:32:37.505Z,4.35
2022-08-17T22:35:26.279Z,3.95
2022-08-17T22:37:53.612Z,4.75
2022-08-17T22:40:34.545Z,4.93
2022-08-17T22:43:03.638Z,4.38
2022-08-17T22:45:32.517Z,4.85
2022-08-17T22:48:02.130Z,4.82
2022-08-17T22:50:33.205Z,4.78
2022-08-17T22:53:34.593Z,4.55
2022-08-17T22:56:20.581Z,4.47
2022-08-17T22:59:17.891Z,4.57
2022-08-17T23:02:05.270Z,4.75
2022-08-17T23:04:38.060Z,4.38
2022-08-17T23:07:09.022Z,4.28
2022-08-17T23:09:36.834Z,4.45
2022-08-17T23:12:09.201Z,4.90
2022-08-17T23:14:42.494Z,4.28
2022-08-17T23:17:10.069Z,4.70
2022-08-17T23:19:37.775Z,5.45
2022-08-17T23:22:08.561Z,4.72
2022-08-17T23:24:42.639Z,5.10
2022-08-17T23:27:13.510Z,5.57
2022-08-17T23:29:42.242Z,5.10
2022-08-17T23:32:13.611Z,5.25
2022-08-17T23:34:42.552Z,5.18
2022-08-17T23:37:12.920Z,4.68
2022-08-17T23:39:40.413Z,4.85
2022-08-17T23:42:10.733Z,4.93
2022-08-17T23:44:40.125Z,4.68
2022-08-17T23:47:07.888Z,4.78
2022-08-17T23:49:36.410Z,4.50
2022-08-17T23:52:09.875Z,4.88
2022-08-17T23:54:43.666Z,4.28
2022-08-17T23:57:17.975Z,5.30
2022-08-17T23:59:45.659Z,4.50
